Main page
Satellite images 10-day forecastsClimateMarine weather Cyclones Lightning AirportsFAQ Newsletter About
Weather : Europe Africa North America South America Asia Australia-Oceania Others
Languages Contact

Tunis, Tunisia

Tunis–Carthage International Airport

latitude: 36-50N, longitude: 010-14E, elevation: 3 m


METAR: DTTA 292030Z 10006KT 060V130 9999 FEW026 28/21 Q1019 NOSIG
TAF: DTTA 291730Z 2918/3018 10010KT 9999 FEW026 BECMG 2921/2923 16008KT BECMG 3015/3017 10015KT 9999 FEW026

Time: 21:53 (20:53 UTC)

Current weather observation

The report was made 23 minutes ago, at 20:30 UTC
Wind 6 kt from the East, varying between East/Northeast and Southeast
Temperature 28°C
Humidity 66%
Pressure 1019 hPa
Visibility 10 km or more
Few clouds at a height of 2600 ft

Change units

Forecast

The report was made 3 hours and 23 minutes ago, at 17:30 UTC
Forecast valid from 29 at 18 UTC to 30 at 18 UTC
Wind 10 kt from the East
Visibility 10 km or more
Few clouds at a height of 2600 ft
Becoming
from 29 at 21 UTC to 29 at 23 UTC
Wind 8 kt from the South/Southeast
Becoming
from 30 at 15 UTC to 30 at 17 UTC
Wind 15 kt from the East
Visibility 10 km or more
Few clouds at a height of 2600 ft
The information on this site is subject to a disclaimer
Weather : Europe Africa North America South America Asia Australia-Oceania Others
Satellite images 10-day forecastsClimateMarine weather Cyclones Lightning AirportsFAQ Languages Contact Newsletter About